sensor_id;sensor_type;location;lat;lon;timestamp;temperature;humidity
8067;DHT22;4076;48.076;9.118;2023-07-20T00:01:23;16.60;99.90
8067;DHT22;4076;48.076;9.118;2023-07-20T00:03:48;16.60;99.90
8067;DHT22;4076;48.076;9.118;2023-07-20T00:06:23;16.60;99.90
8067;DHT22;4076;48.076;9.118;2023-07-20T00:08:50;16.60;99.90
8067;DHT22;4076;48.076;9.118;2023-07-20T00:11:16;16.50;99.90
8067;DHT22;4076;48.076;9.118;2023-07-20T00:13:41;16.50;99.90
8067;DHT22;4076;48.076;9.118;2023-07-20T00:16:07;16.50;99.90
8067;DHT22;4076;48.076;9.118;2023-07-20T00:18:33;16.50;99.90
8067;DHT22;4076;48.076;9.118;2023-07-20T00:20:58;16.40;99.90
8067;DHT22;4076;48.076;9.118;2023-07-20T00:23:27;16.30;99.90
8067;DHT22;4076;48.076;9.118;2023-07-20T00:25:53;16.30;99.90
8067;DHT22;4076;48.076;9.118;2023-07-20T00:28:19;16.30;99.90
8067;DHT22;4076;48.076;9.118;2023-07-20T00:30:45;16.20;99.90
8067;DHT22;4076;48.076;9.118;2023-07-20T00:33:11;16.20;99.90
8067;DHT22;4076;48.076;9.118;2023-07-20T00:35:37;16.20;99.90
8067;DHT22;4076;48.076;9.118;2023-07-20T00:38:04;16.20;99.90
8067;DHT22;4076;48.076;9.118;2023-07-20T00:40:39;16.20;99.90
8067;DHT22;4076;48.076;9.118;2023-07-20T00:43:05;16.10;99.90
8067;DHT22;4076;48.076;9.118;2023-07-20T00:45:33;16.10;99.90
8067;DHT22;4076;48.076;9.118;2023-07-20T00:47:59;16.10;99.90
8067;DHT22;4076;48.076;9.118;2023-07-20T00:50:26;16.10;99.90
8067;DHT22;4076;48.076;9.118;2023-07-20T00:52:55;16.10;99.90
8067;DHT22;4076;48.076;9.118;2023-07-20T00:55:21;16.00;99.90
8067;DHT22;4076;48.076;9.118;2023-07-20T00:57:47;16.00;99.90
8067;DHT22;4076;48.076;9.118;2023-07-20T01:00:13;16.00;99.90
8067;DHT22;4076;48.076;9.118;2023-07-20T01:02:39;15.90;99.90
8067;DHT22;4076;48.076;9.118;2023-07-20T01:05:05;15.90;99.90
8067;DHT22;4076;48.076;9.118;2023-07-20T01:12:53;15.70;99.90
8067;DHT22;4076;48.076;9.118;2023-07-20T01:15:20;15.70;99.90
8067;DHT22;4076;48.076;9.118;2023-07-20T01:17:46;15.60;99.90
8067;DHT22;4076;48.076;9.118;2023-07-20T01:20:16;15.60;99.90
8067;DHT22;4076;48.076;9.118;2023-07-20T01:25:45;15.40;99.90
8067;DHT22;4076;48.076;9.118;2023-07-20T01:31:27;15.30;99.90
8067;DHT22;4076;48.076;9.118;2023-07-20T01:33:56;15.20;99.90
8067;DHT22;4076;48.076;9.118;2023-07-20T01:36:24;15.20;99.90
8067;DHT22;4076;48.076;9.118;2023-07-20T01:38:53;15.10;99.90
8067;DHT22;4076;48.076;9.118;2023-07-20T01:41:20;15.10;99.90
8067;DHT22;4076;48.076;9.118;2023-07-20T01:43:46;15.10;99.90
8067;DHT22;4076;48.076;9.118;2023-07-20T01:46:11;15.10;99.90
8067;DHT22;4076;48.076;9.118;2023-07-20T01:48:37;15.00;99.90
8067;DHT22;4076;48.076;9.118;2023-07-20T01:51:02;14.90;99.90
8067;DHT22;4076;48.076;9.118;2023-07-20T01:53:28;14.90;99.90
8067;DHT22;4076;48.076;9.118;2023-07-20T01:55:54;14.80;99.90
8067;DHT22;4076;48.076;9.118;2023-07-20T01:58:20;14.80;99.90
8067;DHT22;4076;48.076;9.118;2023-07-20T02:00:46;14.60;99.90
8067;DHT22;4076;48.076;9.118;2023-07-20T02:03:11;14.60;99.90
8067;DHT22;4076;48.076;9.118;2023-07-20T02:05:42;14.60;99.90
8067;DHT22;4076;48.076;9.118;2023-07-20T02:08:08;14.60;99.90
8067;DHT22;4076;48.076;9.118;2023-07-20T02:10:34;14.60;99.90
8067;DHT22;4076;48.076;9.118;2023-07-20T02:12:59;14.50;99.90
8067;DHT22;4076;48.076;9.118;2023-07-20T02:15:25;14.40;99.90
8067;DHT22;4076;48.076;9.118;2023-07-20T02:17:50;14.40;99.90
8067;DHT22;4076;48.076;9.118;2023-07-20T02:20:16;14.30;99.90
8067;DHT22;4076;48.076;9.118;2023-07-20T02:22:42;14.30;99.90
8067;DHT22;4076;48.076;9.118;2023-07-20T02:25:08;14.30;99.90
8067;DHT22;4076;48.076;9.118;2023-07-20T02:27:34;14.30;99.90
8067;DHT22;4076;48.076;9.118;2023-07-20T02:30:00;14.30;99.90
8067;DHT22;4076;48.076;9.118;2023-07-20T02:32:26;14.30;99.90
8067;DHT22;4076;48.076;9.118;2023-07-20T02:34:52;14.20;99.90
8067;DHT22;4076;48.076;9.118;2023-07-20T02:37:17;14.10;99.90
8067;DHT22;4076;48.076;9.118;2023-07-20T02:39:43;14.10;99.90
8067;DHT22;4076;48.076;9.118;2023-07-20T02:42:09;14.00;99.90
8067;DHT22;4076;48.076;9.118;2023-07-20T02:44:34;14.00;99.90
8067;DHT22;4076;48.076;9.118;2023-07-20T02:47:00;14.10;99.90
8067;DHT22;4076;48.076;9.118;2023-07-20T02:49:26;14.00;99.90
8067;DHT22;4076;48.076;9.118;2023-07-20T02:51:52;13.90;99.90
8067;DHT22;4076;48.076;9.118;2023-07-20T02:54:17;13.80;99.90
8067;DHT22;4076;48.076;9.118;2023-07-20T02:56:43;13.80;99.90
8067;DHT22;4076;48.076;9.118;2023-07-20T02:59:09;13.70;99.90
8067;DHT22;4076;48.076;9.118;2023-07-20T03:01:35;13.70;99.90
8067;DHT22;4076;48.076;9.118;2023-07-20T03:04:01;13.60;99.90
8067;DHT22;4076;48.076;9.118;2023-07-20T03:06:27;13.60;99.90
8067;DHT22;4076;48.076;9.118;2023-07-20T03:08:53;13.60;99.90
8067;DHT22;4076;48.076;9.118;2023-07-20T03:11:20;13.60;99.90
8067;DHT22;4076;48.076;9.118;2023-07-20T03:13:46;13.50;99.90
8067;DHT22;4076;48.076;9.118;2023-07-20T03:16:14;13.50;99.90
8067;DHT22;4076;48.076;9.118;2023-07-20T03:18:41;13.50;99.90
8067;DHT22;4076;48.076;9.118;2023-07-20T03:21:08;13.50;99.90
8067;DHT22;4076;48.076;9.118;2023-07-20T03:23:34;13.50;99.90
8067;DHT22;4076;48.076;9.118;2023-07-20T03:26:00;13.40;99.90
8067;DHT22;4076;48.076;9.118;2023-07-20T03:28:26;13.40;99.90
8067;DHT22;4076;48.076;9.118;2023-07-20T03:30:58;13.40;99.90
8067;DHT22;4076;48.076;9.118;2023-07-20T03:33:29;13.40;99.90
8067;DHT22;4076;48.076;9.118;2023-07-20T03:35:55;13.40;99.90
8067;DHT22;4076;48.076;9.118;2023-07-20T03:38:21;13.30;99.90
8067;DHT22;4076;48.076;9.118;2023-07-20T03:40:57;13.20;99.90
8067;DHT22;4076;48.076;9.118;2023-07-20T03:43:25;13.20;99.90
8067;DHT22;4076;48.076;9.118;2023-07-20T03:45:51;13.20;99.90
8067;DHT22;4076;48.076;9.118;2023-07-20T03:48:19;13.20;99.90
8067;DHT22;4076;48.076;9.118;2023-07-20T03:50:46;13.30;99.90
8067;DHT22;4076;48.076;9.118;2023-07-20T03:53:15;13.20;99.90
8067;DHT22;4076;48.076;9.118;2023-07-20T03:55:45;13.20;99.90
8067;DHT22;4076;48.076;9.118;2023-07-20T03:58:12;13.10;99.90
8067;DHT22;4076;48.076;9.118;2023-07-20T04:00:38;13.10;99.90
8067;DHT22;4076;48.076;9.118;2023-07-20T04:03:04;13.10;99.90
8067;DHT22;4076;48.076;9.118;2023-07-20T04:05:29;13.00;99.90
8067;DHT22;4076;48.076;9.118;2023-07-20T04:07:55;13.00;99.90
8067;DHT22;4076;48.076;9.118;2023-07-20T04:10:21;13.00;99.90
8067;DHT22;4076;48.076;9.118;2023-07-20T04:12:46;13.10;99.90
8067;DHT22;4076;48.076;9.118;2023-07-20T04:15:13;13.10;99.90
8067;DHT22;4076;48.076;9.118;2023-07-20T04:17:39;13.00;99.90
8067;DHT22;4076;48.076;9.118;2023-07-20T04:20:07;13.00;99.90
8067;DHT22;4076;48.076;9.118;2023-07-20T04:22:32;13.00;99.90
8067;DHT22;4076;48.076;9.118;2023-07-20T04:24:58;13.00;99.90
8067;DHT22;4076;48.076;9.118;2023-07-20T04:27:24;13.00;99.90
8067;DHT22;4076;48.076;9.118;2023-07-20T04:29:49;13.10;99.90
8067;DHT22;4076;48.076;9.118;2023-07-20T04:32:15;13.10;99.90
8067;DHT22;4076;48.076;9.118;2023-07-20T04:34:41;13.10;99.90
8067;DHT22;4076;48.076;9.118;2023-07-20T04:37:06;13.20;99.90
8067;DHT22;4076;48.076;9.118;2023-07-20T04:39:32;13.30;99.90
8067;DHT22;4076;48.076;9.118;2023-07-20T04:41:58;13.40;99.90
8067;DHT22;4076;48.076;9.118;2023-07-20T04:44:23;13.40;99.90
8067;DHT22;4076;48.076;9.118;2023-07-20T04:46:49;13.50;99.90
8067;DHT22;4076;48.076;9.118;2023-07-20T04:49:15;13.50;99.90
8067;DHT22;4076;48.076;9.118;2023-07-20T04:51:40;13.60;99.90
8067;DHT22;4076;48.076;9.118;2023-07-20T04:54:06;13.80;99.90
8067;DHT22;4076;48.076;9.118;2023-07-20T04:56:32;13.90;99.90
8067;DHT22;4076;48.076;9.118;2023-07-20T04:58:58;14.10;99.90
8067;DHT22;4076;48.076;9.118;2023-07-20T05:01:24;14.40;99.90
8067;DHT22;4076;48.076;9.118;2023-07-20T05:03:50;14.70;99.90
8067;DHT22;4076;48.076;9.118;2023-07-20T05:06:15;15.00;99.90
8067;DHT22;4076;48.076;9.118;2023-07-20T05:08:41;15.30;99.90
8067;DHT22;4076;48.076;9.118;2023-07-20T05:11:07;15.60;99.90
8067;DHT22;4076;48.076;9.118;2023-07-20T05:13:33;15.80;99.90
8067;DHT22;4076;48.076;9.118;2023-07-20T05:15:58;15.90;99.90
8067;DHT22;4076;48.076;9.118;2023-07-20T05:18:24;16.10;99.90
8067;DHT22;4076;48.076;9.118;2023-07-20T05:20:50;16.10;99.90
8067;DHT22;4076;48.076;9.118;2023-07-20T05:23:17;16.20;99.90
8067;DHT22;4076;48.076;9.118;2023-07-20T05:25:43;16.30;99.90
8067;DHT22;4076;48.076;9.118;2023-07-20T05:28:09;16.40;99.90
8067;DHT22;4076;48.076;9.118;2023-07-20T05:30:34;16.60;99.90
8067;DHT22;4076;48.076;9.118;2023-07-20T05:33:00;16.60;99.90
8067;DHT22;4076;48.076;9.118;2023-07-20T05:35:26;16.60;99.90
8067;DHT22;4076;48.076;9.118;2023-07-20T05:37:52;16.60;99.90
8067;DHT22;4076;48.076;9.118;2023-07-20T05:40:18;16.50;99.90
8067;DHT22;4076;48.076;9.118;2023-07-20T05:42:48;16.50;99.90
8067;DHT22;4076;48.076;9.118;2023-07-20T05:45:14;16.50;99.90
8067;DHT22;4076;48.076;9.118;2023-07-20T05:47:41;16.50;99.90
8067;DHT22;4076;48.076;9.118;2023-07-20T05:50:07;16.50;99.90
8067;DHT22;4076;48.076;9.118;2023-07-20T05:52:33;16.50;99.90
8067;DHT22;4076;48.076;9.118;2023-07-20T05:54:58;16.60;99.90
8067;DHT22;4076;48.076;9.118;2023-07-20T05:57:24;16.70;99.90
8067;DHT22;4076;48.076;9.118;2023-07-20T05:59:49;16.70;99.90
8067;DHT22;4076;48.076;9.118;2023-07-20T06:02:15;16.70;99.90
8067;DHT22;4076;48.076;9.118;2023-07-20T06:04:41;16.70;99.90
8067;DHT22;4076;48.076;9.118;2023-07-20T06:07:07;16.80;99.90
8067;DHT22;4076;48.076;9.118;2023-07-20T06:09:35;16.80;99.90
8067;DHT22;4076;48.076;9.118;2023-07-20T06:12:01;16.90;99.90
8067;DHT22;4076;48.076;9.118;2023-07-20T06:14:26;17.00;99.90
8067;DHT22;4076;48.076;9.118;2023-07-20T06:16:52;17.20;99.90
8067;DHT22;4076;48.076;9.118;2023-07-20T06:19:17;17.20;99.90
8067;DHT22;4076;48.076;9.118;2023-07-20T06:21:43;17.40;99.90
8067;DHT22;4076;48.076;9.118;2023-07-20T06:24:09;17.50;99.90
8067;DHT22;4076;48.076;9.118;2023-07-20T06:26:34;17.60;99.90
8067;DHT22;4076;48.076;9.118;2023-07-20T06:29:06;17.80;99.90
8067;DHT22;4076;48.076;9.118;2023-07-20T06:31:32;18.00;99.90
8067;DHT22;4076;48.076;9.118;2023-07-20T06:33:58;18.10;99.90
8067;DHT22;4076;48.076;9.118;2023-07-20T06:36:24;18.20;99.90
8067;DHT22;4076;48.076;9.118;2023-07-20T06:38:51;18.20;99.90
8067;DHT22;4076;48.076;9.118;2023-07-20T06:41:17;18.40;99.90
8067;DHT22;4076;48.076;9.118;2023-07-20T06:43:42;18.50;99.90
8067;DHT22;4076;48.076;9.118;2023-07-20T06:46:08;18.80;99.90
8067;DHT22;4076;48.076;9.118;2023-07-20T06:48:33;19.00;99.90
8067;DHT22;4076;48.076;9.118;2023-07-20T06:50:59;19.10;99.90
8067;DHT22;4076;48.076;9.118;2023-07-20T06:53:24;19.20;99.90
8067;DHT22;4076;48.076;9.118;2023-07-20T06:55:50;19.30;99.90
8067;DHT22;4076;48.076;9.118;2023-07-20T06:58:16;19.40;99.90
8067;DHT22;4076;48.076;9.118;2023-07-20T07:00:41;19.50;99.90
8067;DHT22;4076;48.076;9.118;2023-07-20T07:03:08;19.70;99.90
8067;DHT22;4076;48.076;9.118;2023-07-20T07:05:36;19.90;99.90
8067;DHT22;4076;48.076;9.118;2023-07-20T07:12:55;21.20;97.00
8067;DHT22;4076;48.076;9.118;2023-07-20T07:15:20;21.40;94.10
8067;DHT22;4076;48.076;9.118;2023-07-20T07:20:12;21.90;90.60
8067;DHT22;4076;48.076;9.118;2023-07-20T07:22:38;22.00;81.20
8067;DHT22;4076;48.076;9.118;2023-07-20T07:25:04;22.00;81.00
8067;DHT22;4076;48.076;9.118;2023-07-20T07:27:30;22.20;80.20
8067;DHT22;4076;48.076;9.118;2023-07-20T07:29:56;22.30;79.10
8067;DHT22;4076;48.076;9.118;2023-07-20T07:32:21;22.50;75.60
8067;DHT22;4076;48.076;9.118;2023-07-20T07:34:47;22.70;73.70
8067;DHT22;4076;48.076;9.118;2023-07-20T07:37:14;23.00;72.50
8067;DHT22;4076;48.076;9.118;2023-07-20T07:39:39;23.30;68.40
8067;DHT22;4076;48.076;9.118;2023-07-20T07:42:05;23.40;62.60
8067;DHT22;4076;48.076;9.118;2023-07-20T07:44:31;23.50;60.90
8067;DHT22;4076;48.076;9.118;2023-07-20T07:46:57;23.70;61.40
8067;DHT22;4076;48.076;9.118;2023-07-20T07:49:23;24.10;62.30
8067;DHT22;4076;48.076;9.118;2023-07-20T07:51:48;24.80;59.70
8067;DHT22;4076;48.076;9.118;2023-07-20T07:54:14;25.90;58.30
8067;DHT22;4076;48.076;9.118;2023-07-20T07:56:40;26.40;52.90
8067;DHT22;4076;48.076;9.118;2023-07-20T07:59:06;26.90;50.60
8067;DHT22;4076;48.076;9.118;2023-07-20T08:01:32;26.90;50.40
8067;DHT22;4076;48.076;9.118;2023-07-20T08:03:57;26.50;49.50
8067;DHT22;4076;48.076;9.118;2023-07-20T08:06:23;26.10;50.20
8067;DHT22;4076;48.076;9.118;2023-07-20T08:08:50;26.00;50.50
8067;DHT22;4076;48.076;9.118;2023-07-20T08:11:15;25.60;50.50
8067;DHT22;4076;48.076;9.118;2023-07-20T08:13:43;25.20;48.90
8067;DHT22;4076;48.076;9.118;2023-07-20T08:16:08;24.80;50.20
8067;DHT22;4076;48.076;9.118;2023-07-20T08:18:34;24.60;51.70
8067;DHT22;4076;48.076;9.118;2023-07-20T08:21:00;24.70;51.40
8067;DHT22;4076;48.076;9.118;2023-07-20T08:23:25;25.20;52.10
8067;DHT22;4076;48.076;9.118;2023-07-20T08:25:53;26.80;47.90
8067;DHT22;4076;48.076;9.118;2023-07-20T08:28:18;28.70;49.40
8067;DHT22;4076;48.076;9.118;2023-07-20T08:30:48;30.00;44.70
8067;DHT22;4076;48.076;9.118;2023-07-20T08:33:16;29.80;42.80
8067;DHT22;4076;48.076;9.118;2023-07-20T08:35:43;29.10;42.60
8067;DHT22;4076;48.076;9.118;2023-07-20T08:38:08;28.30;43.30
8067;DHT22;4076;48.076;9.118;2023-07-20T08:40:42;27.60;43.60
8067;DHT22;4076;48.076;9.118;2023-07-20T08:43:10;27.60;44.00
8067;DHT22;4076;48.076;9.118;2023-07-20T08:45:36;28.20;43.10
8067;DHT22;4076;48.076;9.118;2023-07-20T08:48:05;28.70;42.70
8067;DHT22;4076;48.076;9.118;2023-07-20T08:50:31;29.80;41.30
8067;DHT22;4076;48.076;9.118;2023-07-20T08:52:58;29.70;40.40
8067;DHT22;4076;48.076;9.118;2023-07-20T08:55:26;29.00;40.80
8067;DHT22;4076;48.076;9.118;2023-07-20T08:57:57;28.50;42.20
8067;DHT22;4076;48.076;9.118;2023-07-20T09:00:24;27.80;41.50
8067;DHT22;4076;48.076;9.118;2023-07-20T09:02:52;27.00;42.80
8067;DHT22;4076;48.076;9.118;2023-07-20T09:05:19;26.20;43.30
8067;DHT22;4076;48.076;9.118;2023-07-20T09:07:45;25.60;45.20
8067;DHT22;4076;48.076;9.118;2023-07-20T09:10:11;25.00;45.90
8067;DHT22;4076;48.076;9.118;2023-07-20T09:12:39;24.70;46.70
8067;DHT22;4076;48.076;9.118;2023-07-20T09:15:06;24.50;47.80
8067;DHT22;4076;48.076;9.118;2023-07-20T09:17:31;24.30;47.60
8067;DHT22;4076;48.076;9.118;2023-07-20T09:19:57;24.10;48.60
8067;DHT22;4076;48.076;9.118;2023-07-20T09:22:30;24.00;48.10
8067;DHT22;4076;48.076;9.118;2023-07-20T09:24:56;23.90;48.60
8067;DHT22;4076;48.076;9.118;2023-07-20T09:27:23;24.20;50.00
8067;DHT22;4076;48.076;9.118;2023-07-20T09:29:54;25.00;50.60
8067;DHT22;4076;48.076;9.118;2023-07-20T09:32:22;26.70;49.20
8067;DHT22;4076;48.076;9.118;2023-07-20T09:34:49;28.50;46.80
8067;DHT22;4076;48.076;9.118;2023-07-20T09:37:23;31.10;45.30
8067;DHT22;4076;48.076;9.118;2023-07-20T09:39:52;33.80;40.10
8067;DHT22;4076;48.076;9.118;2023-07-20T09:42:18;36.00;36.10
8067;DHT22;4076;48.076;9.118;2023-07-20T09:44:44;37.50;32.30
8067;DHT22;4076;48.076;9.118;2023-07-20T09:47:10;38.70;31.30
8067;DHT22;4076;48.076;9.118;2023-07-20T09:49:42;39.40;29.40
8067;DHT22;4076;48.076;9.118;2023-07-20T09:52:12;39.70;28.40
8067;DHT22;4076;48.076;9.118;2023-07-20T09:54:39;39.70;28.80
8067;DHT22;4076;48.076;9.118;2023-07-20T09:57:07;39.30;28.80
8067;DHT22;4076;48.076;9.118;2023-07-20T09:59:33;38.10;29.00
8067;DHT22;4076;48.076;9.118;2023-07-20T10:02:00;36.60;29.80
8067;DHT22;4076;48.076;9.118;2023-07-20T10:04:28;34.90;30.20
8067;DHT22;4076;48.076;9.118;2023-07-20T10:06:55;33.30;32.20
8067;DHT22;4076;48.076;9.118;2023-07-20T10:09:22;32.00;32.90
8067;DHT22;4076;48.076;9.118;2023-07-20T10:11:50;31.00;33.70
8067;DHT22;4076;48.076;9.118;2023-07-20T10:14:20;30.30;35.30
8067;DHT22;4076;48.076;9.118;2023-07-20T10:16:55;30.10;36.60
8067;DHT22;4076;48.076;9.118;2023-07-20T10:22:07;30.10;38.20
8067;DHT22;4076;48.076;9.118;2023-07-20T10:24:36;29.70;37.40
8067;DHT22;4076;48.076;9.118;2023-07-20T10:27:02;29.20;37.00
8067;DHT22;4076;48.076;9.118;2023-07-20T10:29:28;28.50;38.10
8067;DHT22;4076;48.076;9.118;2023-07-20T10:31:55;27.90;40.30
8067;DHT22;4076;48.076;9.118;2023-07-20T10:34:21;27.40;39.80
8067;DHT22;4076;48.076;9.118;2023-07-20T10:36:47;27.00;40.60
8067;DHT22;4076;48.076;9.118;2023-07-20T10:39:28;26.80;41.10
8067;DHT22;4076;48.076;9.118;2023-07-20T10:42:01;26.50;41.60
8067;DHT22;4076;48.076;9.118;2023-07-20T10:44:27;26.40;42.20
8067;DHT22;4076;48.076;9.118;2023-07-20T10:47:02;26.70;42.60
8067;DHT22;4076;48.076;9.118;2023-07-20T10:49:33;27.10;42.30
8067;DHT22;4076;48.076;9.118;2023-07-20T10:52:00;27.40;41.80
8067;DHT22;4076;48.076;9.118;2023-07-20T10:56:57;27.60;42.20
8067;DHT22;4076;48.076;9.118;2023-07-20T11:01:49;28.00;41.60
8067;DHT22;4076;48.076;9.118;2023-07-20T11:04:15;28.10;40.30
8067;DHT22;4076;48.076;9.118;2023-07-20T11:06:44;28.10;40.40
8067;DHT22;4076;48.076;9.118;2023-07-20T11:09:14;28.10;40.20
8067;DHT22;4076;48.076;9.118;2023-07-20T11:11:47;28.00;40.80
8067;DHT22;4076;48.076;9.118;2023-07-20T11:14:23;28.00;41.30
8067;DHT22;4076;48.076;9.118;2023-07-20T11:16:51;27.90;41.30
8067;DHT22;4076;48.076;9.118;2023-07-20T11:19:18;27.70;41.70
8067;DHT22;4076;48.076;9.118;2023-07-20T11:21:51;27.70;41.10
8067;DHT22;4076;48.076;9.118;2023-07-20T11:24:17;27.80;42.00
8067;DHT22;4076;48.076;9.118;2023-07-20T11:26:51;27.60;41.40
8067;DHT22;4076;48.076;9.118;2023-07-20T11:29:19;27.30;41.40
8067;DHT22;4076;48.076;9.118;2023-07-20T11:31:46;27.00;41.50
8067;DHT22;4076;48.076;9.118;2023-07-20T11:36:44;26.40;42.50
8067;DHT22;4076;48.076;9.118;2023-07-20T11:39:14;26.20;43.00
8067;DHT22;4076;48.076;9.118;2023-07-20T11:41:46;26.20;43.10
8067;DHT22;4076;48.076;9.118;2023-07-20T11:44:12;26.20;43.40
8067;DHT22;4076;48.076;9.118;2023-07-20T11:46:41;26.10;41.90
8067;DHT22;4076;48.076;9.118;2023-07-20T11:49:08;26.10;42.50
8067;DHT22;4076;48.076;9.118;2023-07-20T11:51:34;26.30;44.00
8067;DHT22;4076;48.076;9.118;2023-07-20T11:54:02;26.60;43.30
8067;DHT22;4076;48.076;9.118;2023-07-20T11:56:28;26.80;43.00
8067;DHT22;4076;48.076;9.118;2023-07-20T11:58:57;27.00;43.30
8067;DHT22;4076;48.076;9.118;2023-07-20T12:01:26;27.10;40.90
8067;DHT22;4076;48.076;9.118;2023-07-20T12:03:57;27.10;41.40
8067;DHT22;4076;48.076;9.118;2023-07-20T12:06:24;27.00;40.90
8067;DHT22;4076;48.076;9.118;2023-07-20T12:08:52;27.00;41.50
8067;DHT22;4076;48.076;9.118;2023-07-20T12:11:37;27.00;41.00
8067;DHT22;4076;48.076;9.118;2023-07-20T12:14:07;27.10;42.00
8067;DHT22;4076;48.076;9.118;2023-07-20T12:16:34;27.10;42.10
8067;DHT22;4076;48.076;9.118;2023-07-20T12:21:37;27.30;41.60
8067;DHT22;4076;48.076;9.118;2023-07-20T12:24:04;27.40;42.10
8067;DHT22;4076;48.076;9.118;2023-07-20T12:26:31;27.50;41.80
8067;DHT22;4076;48.076;9.118;2023-07-20T12:28:57;27.60;41.70
8067;DHT22;4076;48.076;9.118;2023-07-20T12:31:23;27.60;40.90
8067;DHT22;4076;48.076;9.118;2023-07-20T12:33:53;27.60;41.10
8067;DHT22;4076;48.076;9.118;2023-07-20T12:36:20;27.50;41.60
8067;DHT22;4076;48.076;9.118;2023-07-20T12:38:46;27.60;42.40
8067;DHT22;4076;48.076;9.118;2023-07-20T12:41:12;27.60;41.90
8067;DHT22;4076;48.076;9.118;2023-07-20T12:43:39;27.60;42.00
8067;DHT22;4076;48.076;9.118;2023-07-20T12:46:05;27.60;41.80
8067;DHT22;4076;48.076;9.118;2023-07-20T12:48:31;27.60;41.70
8067;DHT22;4076;48.076;9.118;2023-07-20T12:50:57;27.60;41.60
8067;DHT22;4076;48.076;9.118;2023-07-20T12:53:22;27.60;41.00
8067;DHT22;4076;48.076;9.118;2023-07-20T12:55:48;27.60;39.40
8067;DHT22;4076;48.076;9.118;2023-07-20T12:58:14;27.50;40.40
8067;DHT22;4076;48.076;9.118;2023-07-20T13:00:39;27.60;40.20
8067;DHT22;4076;48.076;9.118;2023-07-20T13:03:06;27.60;40.80
8067;DHT22;4076;48.076;9.118;2023-07-20T13:05:32;27.60;41.50
8067;DHT22;4076;48.076;9.118;2023-07-20T13:07:58;27.60;40.70
8067;DHT22;4076;48.076;9.118;2023-07-20T13:10:24;27.60;40.90
8067;DHT22;4076;48.076;9.118;2023-07-20T13:12:50;27.60;40.70
8067;DHT22;4076;48.076;9.118;2023-07-20T13:15:17;27.60;40.90
8067;DHT22;4076;48.076;9.118;2023-07-20T13:17:43;27.80;41.00
8067;DHT22;4076;48.076;9.118;2023-07-20T13:20:10;27.80;41.30
8067;DHT22;4076;48.076;9.118;2023-07-20T13:22:37;27.80;42.10
8067;DHT22;4076;48.076;9.118;2023-07-20T13:25:03;27.80;42.10
8067;DHT22;4076;48.076;9.118;2023-07-20T13:27:29;27.80;41.50
8067;DHT22;4076;48.076;9.118;2023-07-20T13:29:55;27.90;41.20
8067;DHT22;4076;48.076;9.118;2023-07-20T13:32:22;28.00;41.20
8067;DHT22;4076;48.076;9.118;2023-07-20T13:34:47;28.00;40.70
8067;DHT22;4076;48.076;9.118;2023-07-20T13:37:14;27.90;40.80
8067;DHT22;4076;48.076;9.118;2023-07-20T13:39:39;27.80;40.80
8067;DHT22;4076;48.076;9.118;2023-07-20T13:42:05;27.70;40.40
8067;DHT22;4076;48.076;9.118;2023-07-20T13:44:32;27.60;40.60
8067;DHT22;4076;48.076;9.118;2023-07-20T13:46:57;27.30;40.50
8067;DHT22;4076;48.076;9.118;2023-07-20T13:49:23;27.10;40.90
8067;DHT22;4076;48.076;9.118;2023-07-20T13:51:49;26.80;42.30
8067;DHT22;4076;48.076;9.118;2023-07-20T13:54:15;26.80;42.70
8067;DHT22;4076;48.076;9.118;2023-07-20T13:56:40;26.80;41.40
8067;DHT22;4076;48.076;9.118;2023-07-20T13:59:06;26.80;42.50
8067;DHT22;4076;48.076;9.118;2023-07-20T14:01:31;26.90;41.50
8067;DHT22;4076;48.076;9.118;2023-07-20T14:03:59;26.90;41.30
8067;DHT22;4076;48.076;9.118;2023-07-20T14:06:25;27.00;41.40
8067;DHT22;4076;48.076;9.118;2023-07-20T14:08:51;27.10;41.30
8067;DHT22;4076;48.076;9.118;2023-07-20T14:11:18;27.20;41.20
8067;DHT22;4076;48.076;9.118;2023-07-20T14:13:44;27.30;42.00
8067;DHT22;4076;48.076;9.118;2023-07-20T14:16:09;27.50;42.00
8067;DHT22;4076;48.076;9.118;2023-07-20T14:18:36;27.60;41.90
8067;DHT22;4076;48.076;9.118;2023-07-20T14:21:01;27.70;40.80
8067;DHT22;4076;48.076;9.118;2023-07-20T14:23:28;27.70;41.30
8067;DHT22;4076;48.076;9.118;2023-07-20T14:25:54;27.70;41.30
8067;DHT22;4076;48.076;9.118;2023-07-20T14:28:20;27.70;40.30
8067;DHT22;4076;48.076;9.118;2023-07-20T14:30:46;27.70;40.60
8067;DHT22;4076;48.076;9.118;2023-07-20T14:33:12;27.70;40.70
8067;DHT22;4076;48.076;9.118;2023-07-20T14:35:37;27.80;40.70
8067;DHT22;4076;48.076;9.118;2023-07-20T14:38:03;27.70;40.10
8067;DHT22;4076;48.076;9.118;2023-07-20T14:40:29;27.50;40.50
8067;DHT22;4076;48.076;9.118;2023-07-20T14:42:55;27.20;40.30
8067;DHT22;4076;48.076;9.118;2023-07-20T14:45:21;27.00;41.50
8067;DHT22;4076;48.076;9.118;2023-07-20T14:47:47;26.70;41.90
8067;DHT22;4076;48.076;9.118;2023-07-20T14:50:19;26.50;42.90
8067;DHT22;4076;48.076;9.118;2023-07-20T14:52:45;26.30;43.60
8067;DHT22;4076;48.076;9.118;2023-07-20T14:55:10;26.10;43.40
8067;DHT22;4076;48.076;9.118;2023-07-20T14:57:36;26.00;43.50
8067;DHT22;4076;48.076;9.118;2023-07-20T15:00:02;25.90;43.70
8067;DHT22;4076;48.076;9.118;2023-07-20T15:02:28;25.70;44.20
8067;DHT22;4076;48.076;9.118;2023-07-20T15:04:54;25.60;44.30
8067;DHT22;4076;48.076;9.118;2023-07-20T15:07:21;25.50;46.20
8067;DHT22;4076;48.076;9.118;2023-07-20T15:09:47;25.50;44.80
8067;DHT22;4076;48.076;9.118;2023-07-20T15:12:13;25.40;45.20
8067;DHT22;4076;48.076;9.118;2023-07-20T15:14:40;25.40;45.10
8067;DHT22;4076;48.076;9.118;2023-07-20T15:17:10;25.40;45.30
8067;DHT22;4076;48.076;9.118;2023-07-20T15:19:36;25.50;45.30
8067;DHT22;4076;48.076;9.118;2023-07-20T15:22:03;25.60;45.00
8067;DHT22;4076;48.076;9.118;2023-07-20T15:24:30;25.70;43.40
8067;DHT22;4076;48.076;9.118;2023-07-20T15:26:55;25.70;44.20
8067;DHT22;4076;48.076;9.118;2023-07-20T15:29:23;25.80;43.90
8067;DHT22;4076;48.076;9.118;2023-07-20T15:31:49;25.90;44.20
8067;DHT22;4076;48.076;9.118;2023-07-20T15:34:14;26.00;43.00
8067;DHT22;4076;48.076;9.118;2023-07-20T15:36:41;26.10;42.70
8067;DHT22;4076;48.076;9.118;2023-07-20T15:39:07;26.20;42.60
8067;DHT22;4076;48.076;9.118;2023-07-20T15:41:33;26.20;42.30
8067;DHT22;4076;48.076;9.118;2023-07-20T15:43:59;26.10;41.90
8067;DHT22;4076;48.076;9.118;2023-07-20T15:48:53;26.10;42.10
8067;DHT22;4076;48.076;9.118;2023-07-20T15:51:18;26.10;41.90
8067;DHT22;4076;48.076;9.118;2023-07-20T15:53:45;26.10;42.00
8067;DHT22;4076;48.076;9.118;2023-07-20T15:56:11;26.10;41.60
8067;DHT22;4076;48.076;9.118;2023-07-20T15:58:36;26.10;41.30
8067;DHT22;4076;48.076;9.118;2023-07-20T16:01:02;26.10;41.20
8067;DHT22;4076;48.076;9.118;2023-07-20T16:03:27;26.00;42.90
8067;DHT22;4076;48.076;9.118;2023-07-20T16:05:53;26.00;44.00
8067;DHT22;4076;48.076;9.118;2023-07-20T16:08:19;25.90;43.80
8067;DHT22;4076;48.076;9.118;2023-07-20T16:10:44;25.70;42.70
8067;DHT22;4076;48.076;9.118;2023-07-20T16:13:10;25.60;42.80
8067;DHT22;4076;48.076;9.118;2023-07-20T16:15:36;25.50;43.00
8067;DHT22;4076;48.076;9.118;2023-07-20T16:18:01;25.50;44.50
8067;DHT22;4076;48.076;9.118;2023-07-20T16:20:27;25.40;44.00
8067;DHT22;4076;48.076;9.118;2023-07-20T16:22:53;25.40;44.20
8067;DHT22;4076;48.076;9.118;2023-07-20T16:25:20;25.30;45.10
8067;DHT22;4076;48.076;9.118;2023-07-20T16:27:46;25.20;44.20
8067;DHT22;4076;48.076;9.118;2023-07-20T16:30:11;25.20;44.70
8067;DHT22;4076;48.076;9.118;2023-07-20T16:32:41;25.20;44.60